sensor_id;sensor_type;location;lat;lon;timestamp;P1;durP1;ratioP1;P2;durP2;ratioP2
16516;SDS011;8371;52.272;9.746;2023-03-14T00:01:24;0.70;;;0.70;;
16516;SDS011;8371;52.272;9.746;2023-03-14T00:03:50;0.70;;;0.70;;
16516;SDS011;8371;52.272;9.746;2023-03-14T00:06:16;0.80;;;0.47;;
16516;SDS011;8371;52.272;9.746;2023-03-14T00:08:44;0.67;;;0.67;;
16516;SDS011;8371;52.272;9.746;2023-03-14T00:11:11;0.87;;;0.87;;
16516;SDS011;8371;52.272;9.746;2023-03-14T00:13:38;0.53;;;0.53;;
16516;SDS011;8371;52.272;9.746;2023-03-14T00:16:05;0.70;;;0.57;;
16516;SDS011;8371;52.272;9.746;2023-03-14T00:18:33;0.40;;;0.40;;
16516;SDS011;8371;52.272;9.746;2023-03-14T00:21:00;0.60;;;0.60;;
16516;SDS011;8371;52.272;9.746;2023-03-14T00:23:27;1.10;;;0.90;;
16516;SDS011;8371;52.272;9.746;2023-03-14T00:25:56;0.57;;;0.57;;
16516;SDS011;8371;52.272;9.746;2023-03-14T00:28:28;0.50;;;0.50;;
16516;SDS011;8371;52.272;9.746;2023-03-14T00:30:54;0.80;;;0.80;;
16516;SDS011;8371;52.272;9.746;2023-03-14T00:33:20;0.83;;;0.80;;
16516;SDS011;8371;52.272;9.746;2023-03-14T00:35:53;0.40;;;0.40;;
16516;SDS011;8371;52.272;9.746;2023-03-14T00:38:20;0.53;;;0.53;;
16516;SDS011;8371;52.272;9.746;2023-03-14T00:40:45;0.97;;;0.60;;
16516;SDS011;8371;52.272;9.746;2023-03-14T00:43:11;0.50;;;0.50;;
16516;SDS011;8371;52.272;9.746;2023-03-14T00:45:37;0.60;;;0.60;;
16516;SDS011;8371;52.272;9.746;2023-03-14T00:48:02;0.60;;;0.60;;
16516;SDS011;8371;52.272;9.746;2023-03-14T00:50:28;0.67;;;0.67;;
16516;SDS011;8371;52.272;9.746;2023-03-14T00:52:54;0.50;;;0.50;;
16516;SDS011;8371;52.272;9.746;2023-03-14T00:55:19;0.43;;;0.43;;
16516;SDS011;8371;52.272;9.746;2023-03-14T00:57:45;3.93;;;0.80;;
16516;SDS011;8371;52.272;9.746;2023-03-14T01:00:11;0.60;;;0.60;;
16516;SDS011;8371;52.272;9.746;2023-03-14T01:02:38;0.50;;;0.50;;
16516;SDS011;8371;52.272;9.746;2023-03-14T01:05:04;0.70;;;0.60;;
16516;SDS011;8371;52.272;9.746;2023-03-14T01:07:29;0.70;;;0.70;;
16516;SDS011;8371;52.272;9.746;2023-03-14T01:09:55;0.50;;;0.50;;
16516;SDS011;8371;52.272;9.746;2023-03-14T01:12:21;0.73;;;0.73;;
16516;SDS011;8371;52.272;9.746;2023-03-14T01:14:46;0.67;;;0.67;;
16516;SDS011;8371;52.272;9.746;2023-03-14T01:17:12;0.70;;;0.70;;
16516;SDS011;8371;52.272;9.746;2023-03-14T01:19:38;0.70;;;0.70;;
16516;SDS011;8371;52.272;9.746;2023-03-14T01:22:03;0.73;;;0.60;;
16516;SDS011;8371;52.272;9.746;2023-03-14T01:24:29;0.93;;;0.70;;
16516;SDS011;8371;52.272;9.746;2023-03-14T01:26:55;0.50;;;0.50;;
16516;SDS011;8371;52.272;9.746;2023-03-14T01:29:20;0.70;;;0.70;;
16516;SDS011;8371;52.272;9.746;2023-03-14T01:31:46;0.70;;;0.60;;
16516;SDS011;8371;52.272;9.746;2023-03-14T01:34:12;0.53;;;0.50;;
16516;SDS011;8371;52.272;9.746;2023-03-14T01:36:37;0.60;;;0.60;;
16516;SDS011;8371;52.272;9.746;2023-03-14T01:39:03;0.57;;;0.50;;
16516;SDS011;8371;52.272;9.746;2023-03-14T01:41:31;0.60;;;0.60;;
16516;SDS011;8371;52.272;9.746;2023-03-14T01:43:57;0.43;;;0.43;;
16516;SDS011;8371;52.272;9.746;2023-03-14T01:46:28;0.50;;;0.50;;
16516;SDS011;8371;52.272;9.746;2023-03-14T01:54:55;0.40;;;0.40;;
16516;SDS011;8371;52.272;9.746;2023-03-14T01:57:25;0.80;;;0.73;;
16516;SDS011;8371;52.272;9.746;2023-03-14T02:00:05;1.27;;;0.47;;
16516;SDS011;8371;52.272;9.746;2023-03-14T02:02:35;0.50;;;0.50;;
16516;SDS011;8371;52.272;9.746;2023-03-14T02:05:01;0.70;;;0.70;;
16516;SDS011;8371;52.272;9.746;2023-03-14T02:10:14;0.50;;;0.50;;
16516;SDS011;8371;52.272;9.746;2023-03-14T02:12:41;0.70;;;0.70;;
16516;SDS011;8371;52.272;9.746;2023-03-14T02:15:08;0.60;;;0.60;;
16516;SDS011;8371;52.272;9.746;2023-03-14T02:17:34;0.50;;;0.50;;
16516;SDS011;8371;52.272;9.746;2023-03-14T02:22:30;0.80;;;0.60;;
16516;SDS011;8371;52.272;9.746;2023-03-14T02:27:41;0.40;;;0.40;;
16516;SDS011;8371;52.272;9.746;2023-03-14T02:30:26;0.47;;;0.47;;
16516;SDS011;8371;52.272;9.746;2023-03-14T02:32:43;0.47;;;0.47;;
16516;SDS011;8371;52.272;9.746;2023-03-14T02:35:12;0.80;;;0.77;;
16516;SDS011;8371;52.272;9.746;2023-03-14T02:37:41;0.60;;;0.60;;
16516;SDS011;8371;52.272;9.746;2023-03-14T02:40:10;0.57;;;0.57;;
16516;SDS011;8371;52.272;9.746;2023-03-14T02:42:36;0.60;;;0.60;;
16516;SDS011;8371;52.272;9.746;2023-03-14T02:47:39;1.70;;;0.93;;
16516;SDS011;8371;52.272;9.746;2023-03-14T02:50:12;0.63;;;0.57;;
16516;SDS011;8371;52.272;9.746;2023-03-14T02:52:41;1.07;;;0.50;;
16516;SDS011;8371;52.272;9.746;2023-03-14T02:55:07;1.17;;;0.50;;
16516;SDS011;8371;52.272;9.746;2023-03-14T02:57:33;0.40;;;0.40;;
16516;SDS011;8371;52.272;9.746;2023-03-14T02:59:59;0.63;;;0.63;;
16516;SDS011;8371;52.272;9.746;2023-03-14T03:02:26;0.67;;;0.67;;
16516;SDS011;8371;52.272;9.746;2023-03-14T03:04:52;0.73;;;0.73;;
16516;SDS011;8371;52.272;9.746;2023-03-14T03:07:18;0.50;;;0.50;;
16516;SDS011;8371;52.272;9.746;2023-03-14T03:09:44;0.50;;;0.50;;
16516;SDS011;8371;52.272;9.746;2023-03-14T03:12:10;0.37;;;0.37;;
16516;SDS011;8371;52.272;9.746;2023-03-14T03:14:35;0.47;;;0.47;;
16516;SDS011;8371;52.272;9.746;2023-03-14T03:17:03;0.80;;;0.60;;
16516;SDS011;8371;52.272;9.746;2023-03-14T03:19:30;0.73;;;0.60;;
16516;SDS011;8371;52.272;9.746;2023-03-14T03:21:57;0.70;;;0.53;;
16516;SDS011;8371;52.272;9.746;2023-03-14T03:24:23;0.43;;;0.43;;
16516;SDS011;8371;52.272;9.746;2023-03-14T03:26:49;0.60;;;0.60;;
16516;SDS011;8371;52.272;9.746;2023-03-14T03:29:15;0.70;;;0.70;;
16516;SDS011;8371;52.272;9.746;2023-03-14T03:31:41;0.47;;;0.47;;
16516;SDS011;8371;52.272;9.746;2023-03-14T03:34:07;1.00;;;0.57;;
16516;SDS011;8371;52.272;9.746;2023-03-14T03:36:32;0.67;;;0.40;;
16516;SDS011;8371;52.272;9.746;2023-03-14T03:38:58;2.40;;;0.43;;
16516;SDS011;8371;52.272;9.746;2023-03-14T03:41:24;1.03;;;0.50;;
16516;SDS011;8371;52.272;9.746;2023-03-14T03:43:49;2.63;;;0.50;;
16516;SDS011;8371;52.272;9.746;2023-03-14T03:46:15;1.23;;;0.67;;
16516;SDS011;8371;52.272;9.746;2023-03-14T03:48:41;1.80;;;0.53;;
16516;SDS011;8371;52.272;9.746;2023-03-14T03:51:07;0.83;;;0.60;;
16516;SDS011;8371;52.272;9.746;2023-03-14T03:53:32;0.43;;;0.43;;
16516;SDS011;8371;52.272;9.746;2023-03-14T03:55:58;0.60;;;0.47;;
16516;SDS011;8371;52.272;9.746;2023-03-14T03:58:24;0.70;;;0.67;;
16516;SDS011;8371;52.272;9.746;2023-03-14T04:00:49;1.70;;;0.60;;
16516;SDS011;8371;52.272;9.746;2023-03-14T04:03:15;1.27;;;0.40;;
16516;SDS011;8371;52.272;9.746;2023-03-14T04:05:41;1.33;;;1.00;;
16516;SDS011;8371;52.272;9.746;2023-03-14T04:08:06;0.37;;;0.37;;
16516;SDS011;8371;52.272;9.746;2023-03-14T04:10:35;0.47;;;0.47;;
16516;SDS011;8371;52.272;9.746;2023-03-14T04:13:01;0.83;;;0.37;;
16516;SDS011;8371;52.272;9.746;2023-03-14T04:15:27;0.67;;;0.40;;
16516;SDS011;8371;52.272;9.746;2023-03-14T04:17:56;0.40;;;0.40;;
16516;SDS011;8371;52.272;9.746;2023-03-14T04:20:23;0.50;;;0.20;;
16516;SDS011;8371;52.272;9.746;2023-03-14T04:22:49;0.10;;;0.10;;
16516;SDS011;8371;52.272;9.746;2023-03-14T04:25:15;0.37;;;0.23;;
16516;SDS011;8371;52.272;9.746;2023-03-14T04:27:42;0.20;;;0.10;;
16516;SDS011;8371;52.272;9.746;2023-03-14T04:30:08;0.30;;;0.30;;
16516;SDS011;8371;52.272;9.746;2023-03-14T04:32:34;0.20;;;0.20;;
16516;SDS011;8371;52.272;9.746;2023-03-14T04:35:00;0.27;;;0.27;;
16516;SDS011;8371;52.272;9.746;2023-03-14T04:37:25;0.30;;;0.30;;
16516;SDS011;8371;52.272;9.746;2023-03-14T04:39:51;0.93;;;0.20;;
16516;SDS011;8371;52.272;9.746;2023-03-14T04:42:17;0.27;;;0.27;;
16516;SDS011;8371;52.272;9.746;2023-03-14T04:44:42;0.10;;;0.10;;
16516;SDS011;8371;52.272;9.746;2023-03-14T04:47:08;0.10;;;0.10;;
16516;SDS011;8371;52.272;9.746;2023-03-14T04:49:34;0.30;;;0.30;;
16516;SDS011;8371;52.272;9.746;2023-03-14T04:51:59;0.40;;;0.23;;
16516;SDS011;8371;52.272;9.746;2023-03-14T04:54:25;0.20;;;0.20;;
16516;SDS011;8371;52.272;9.746;2023-03-14T04:56:51;0.10;;;0.10;;
16516;SDS011;8371;52.272;9.746;2023-03-14T04:59:16;0.20;;;0.20;;
16516;SDS011;8371;52.272;9.746;2023-03-14T05:01:42;0.10;;;0.10;;
16516;SDS011;8371;52.272;9.746;2023-03-14T05:04:08;0.20;;;0.20;;
16516;SDS011;8371;52.272;9.746;2023-03-14T05:06:33;0.23;;;0.23;;
16516;SDS011;8371;52.272;9.746;2023-03-14T05:09:00;0.30;;;0.30;;
16516;SDS011;8371;52.272;9.746;2023-03-14T05:11:26;0.10;;;0.10;;
16516;SDS011;8371;52.272;9.746;2023-03-14T05:13:51;0.50;;;0.50;;
16516;SDS011;8371;52.272;9.746;2023-03-14T05:16:17;0.40;;;0.40;;
16516;SDS011;8371;52.272;9.746;2023-03-14T05:18:43;0.13;;;0.13;;
16516;SDS011;8371;52.272;9.746;2023-03-14T05:21:08;1.40;;;0.40;;
16516;SDS011;8371;52.272;9.746;2023-03-14T05:23:34;0.37;;;0.30;;
16516;SDS011;8371;52.272;9.746;2023-03-14T05:26:00;0.60;;;0.27;;
16516;SDS011;8371;52.272;9.746;2023-03-14T05:28:25;0.30;;;0.30;;
16516;SDS011;8371;52.272;9.746;2023-03-14T05:30:51;0.47;;;0.40;;
16516;SDS011;8371;52.272;9.746;2023-03-14T05:33:17;0.23;;;0.20;;
16516;SDS011;8371;52.272;9.746;2023-03-14T05:35:42;0.30;;;0.30;;
16516;SDS011;8371;52.272;9.746;2023-03-14T05:38:08;0.50;;;0.40;;
16516;SDS011;8371;52.272;9.746;2023-03-14T05:40:34;0.83;;;0.20;;
16516;SDS011;8371;52.272;9.746;2023-03-14T05:43:00;0.73;;;0.33;;
16516;SDS011;8371;52.272;9.746;2023-03-14T05:45:25;0.63;;;0.63;;
16516;SDS011;8371;52.272;9.746;2023-03-14T05:47:51;0.53;;;0.47;;
16516;SDS011;8371;52.272;9.746;2023-03-14T05:50:17;0.93;;;0.60;;
16516;SDS011;8371;52.272;9.746;2023-03-14T05:52:43;0.30;;;0.20;;
16516;SDS011;8371;52.272;9.746;2023-03-14T05:55:09;0.70;;;0.43;;
16516;SDS011;8371;52.272;9.746;2023-03-14T05:57:34;0.47;;;0.43;;
16516;SDS011;8371;52.272;9.746;2023-03-14T06:00:00;0.50;;;0.50;;
16516;SDS011;8371;52.272;9.746;2023-03-14T06:02:25;0.60;;;0.57;;
16516;SDS011;8371;52.272;9.746;2023-03-14T06:04:52;0.53;;;0.53;;
16516;SDS011;8371;52.272;9.746;2023-03-14T06:07:18;0.70;;;0.70;;
16516;SDS011;8371;52.272;9.746;2023-03-14T06:09:44;0.67;;;0.40;;
16516;SDS011;8371;52.272;9.746;2023-03-14T06:12:09;0.30;;;0.30;;
16516;SDS011;8371;52.272;9.746;2023-03-14T06:14:35;1.50;;;0.60;;
16516;SDS011;8371;52.272;9.746;2023-03-14T06:17:00;1.00;;;0.50;;
16516;SDS011;8371;52.272;9.746;2023-03-14T06:19:26;0.67;;;0.50;;
16516;SDS011;8371;52.272;9.746;2023-03-14T06:21:52;0.37;;;0.30;;
16516;SDS011;8371;52.272;9.746;2023-03-14T06:24:17;0.63;;;0.43;;
16516;SDS011;8371;52.272;9.746;2023-03-14T06:26:43;0.53;;;0.40;;
16516;SDS011;8371;52.272;9.746;2023-03-14T06:29:09;0.77;;;0.53;;
16516;SDS011;8371;52.272;9.746;2023-03-14T06:31:35;0.70;;;0.70;;
16516;SDS011;8371;52.272;9.746;2023-03-14T06:34:01;1.23;;;0.20;;
16516;SDS011;8371;52.272;9.746;2023-03-14T06:36:26;0.27;;;0.27;;
16516;SDS011;8371;52.272;9.746;2023-03-14T06:38:52;0.23;;;0.13;;
16516;SDS011;8371;52.272;9.746;2023-03-14T06:41:18;2.10;;;1.50;;
16516;SDS011;8371;52.272;9.746;2023-03-14T06:43:43;0.23;;;0.20;;
16516;SDS011;8371;52.272;9.746;2023-03-14T06:46:09;0.80;;;0.30;;
16516;SDS011;8371;52.272;9.746;2023-03-14T06:48:35;0.40;;;0.40;;
16516;SDS011;8371;52.272;9.746;2023-03-14T06:51:00;0.30;;;0.23;;
16516;SDS011;8371;52.272;9.746;2023-03-14T06:53:26;0.60;;;0.40;;
16516;SDS011;8371;52.272;9.746;2023-03-14T06:55:52;0.30;;;0.30;;
16516;SDS011;8371;52.272;9.746;2023-03-14T06:58:17;0.57;;;0.33;;
16516;SDS011;8371;52.272;9.746;2023-03-14T07:00:43;0.90;;;0.30;;
16516;SDS011;8371;52.272;9.746;2023-03-14T07:03:09;0.40;;;0.23;;
16516;SDS011;8371;52.272;9.746;2023-03-14T07:05:35;0.70;;;0.30;;
16516;SDS011;8371;52.272;9.746;2023-03-14T07:08:01;0.37;;;0.30;;
16516;SDS011;8371;52.272;9.746;2023-03-14T07:10:27;0.30;;;0.20;;
16516;SDS011;8371;52.272;9.746;2023-03-14T07:12:52;0.50;;;0.30;;
16516;SDS011;8371;52.272;9.746;2023-03-14T07:15:19;0.33;;;0.30;;
16516;SDS011;8371;52.272;9.746;2023-03-14T07:17:45;0.23;;;0.10;;
16516;SDS011;8371;52.272;9.746;2023-03-14T07:20:13;0.20;;;0.20;;
16516;SDS011;8371;52.272;9.746;2023-03-14T07:22:39;0.20;;;0.20;;
16516;SDS011;8371;52.272;9.746;2023-03-14T07:25:05;0.10;;;0.10;;
16516;SDS011;8371;52.272;9.746;2023-03-14T07:27:31;0.30;;;0.30;;
16516;SDS011;8371;52.272;9.746;2023-03-14T07:29:57;0.73;;;0.17;;
16516;SDS011;8371;52.272;9.746;2023-03-14T07:32:22;0.27;;;0.27;;
16516;SDS011;8371;52.272;9.746;2023-03-14T07:34:48;1.13;;;0.20;;
16516;SDS011;8371;52.272;9.746;2023-03-14T07:37:14;0.37;;;0.20;;
16516;SDS011;8371;52.272;9.746;2023-03-14T07:39:39;0.20;;;0.20;;
16516;SDS011;8371;52.272;9.746;2023-03-14T07:42:05;1.23;;;0.40;;
16516;SDS011;8371;52.272;9.746;2023-03-14T07:44:31;0.17;;;0.17;;
16516;SDS011;8371;52.272;9.746;2023-03-14T07:46:57;0.33;;;0.10;;
16516;SDS011;8371;52.272;9.746;2023-03-14T07:49:23;0.20;;;0.20;;
16516;SDS011;8371;52.272;9.746;2023-03-14T07:51:48;0.10;;;0.10;;
16516;SDS011;8371;52.272;9.746;2023-03-14T07:54:14;0.33;;;0.20;;
16516;SDS011;8371;52.272;9.746;2023-03-14T07:56:40;0.43;;;0.20;;
16516;SDS011;8371;52.272;9.746;2023-03-14T07:59:06;0.10;;;0.10;;
16516;SDS011;8371;52.272;9.746;2023-03-14T08:01:32;0.40;;;0.40;;
16516;SDS011;8371;52.272;9.746;2023-03-14T08:03:58;0.10;;;0.10;;
16516;SDS011;8371;52.272;9.746;2023-03-14T08:06:24;0.30;;;0.13;;
16516;SDS011;8371;52.272;9.746;2023-03-14T08:08:49;0.30;;;0.20;;
16516;SDS011;8371;52.272;9.746;2023-03-14T08:11:15;0.77;;;0.30;;
16516;SDS011;8371;52.272;9.746;2023-03-14T08:13:41;0.10;;;0.10;;
16516;SDS011;8371;52.272;9.746;2023-03-14T08:16:07;0.20;;;0.10;;
16516;SDS011;8371;52.272;9.746;2023-03-14T08:18:33;0.27;;;0.27;;
16516;SDS011;8371;52.272;9.746;2023-03-14T08:20:59;0.00;;;0.00;;
16516;SDS011;8371;52.272;9.746;2023-03-14T08:23:25;0.07;;;0.07;;
16516;SDS011;8371;52.272;9.746;2023-03-14T08:25:51;0.00;;;0.00;;
16516;SDS011;8371;52.272;9.746;2023-03-14T08:28:17;0.10;;;0.10;;
16516;SDS011;8371;52.272;9.746;2023-03-14T08:30:43;0.40;;;0.20;;
16516;SDS011;8371;52.272;9.746;2023-03-14T08:33:09;0.10;;;0.10;;
16516;SDS011;8371;52.272;9.746;2023-03-14T08:35:36;0.30;;;0.10;;
16516;SDS011;8371;52.272;9.746;2023-03-14T08:38:03;0.10;;;0.10;;
16516;SDS011;8371;52.272;9.746;2023-03-14T08:40:29;0.10;;;0.10;;
16516;SDS011;8371;52.272;9.746;2023-03-14T08:42:55;0.10;;;0.10;;
16516;SDS011;8371;52.272;9.746;2023-03-14T08:45:20;0.10;;;0.10;;
16516;SDS011;8371;52.272;9.746;2023-03-14T08:47:46;0.10;;;0.10;;
16516;SDS011;8371;52.272;9.746;2023-03-14T08:50:12;0.13;;;0.10;;
16516;SDS011;8371;52.272;9.746;2023-03-14T08:52:38;2.27;;;0.43;;
16516;SDS011;8371;52.272;9.746;2023-03-14T08:55:06;0.17;;;0.17;;
16516;SDS011;8371;52.272;9.746;2023-03-14T08:57:33;0.10;;;0.10;;
16516;SDS011;8371;52.272;9.746;2023-03-14T08:59:58;0.53;;;0.30;;
16516;SDS011;8371;52.272;9.746;2023-03-14T09:02:25;0.40;;;0.20;;
16516;SDS011;8371;52.272;9.746;2023-03-14T09:04:51;0.20;;;0.20;;
16516;SDS011;8371;52.272;9.746;2023-03-14T09:07:18;1.07;;;0.37;;
16516;SDS011;8371;52.272;9.746;2023-03-14T09:09:43;0.63;;;0.33;;
16516;SDS011;8371;52.272;9.746;2023-03-14T09:12:10;0.23;;;0.23;;
16516;SDS011;8371;52.272;9.746;2023-03-14T09:14:35;0.80;;;0.40;;
16516;SDS011;8371;52.272;9.746;2023-03-14T09:17:02;0.40;;;0.40;;
16516;SDS011;8371;52.272;9.746;2023-03-14T09:19:28;0.70;;;0.50;;
16516;SDS011;8371;52.272;9.746;2023-03-14T09:21:53;0.40;;;0.40;;
16516;SDS011;8371;52.272;9.746;2023-03-14T09:24:19;0.17;;;0.17;;
16516;SDS011;8371;52.272;9.746;2023-03-14T09:26:45;0.40;;;0.40;;
16516;SDS011;8371;52.272;9.746;2023-03-14T09:29:11;0.30;;;0.30;;
16516;SDS011;8371;52.272;9.746;2023-03-14T09:31:36;0.30;;;0.30;;
16516;SDS011;8371;52.272;9.746;2023-03-14T09:34:02;0.30;;;0.30;;
16516;SDS011;8371;52.272;9.746;2023-03-14T09:36:28;0.30;;;0.30;;
16516;SDS011;8371;52.272;9.746;2023-03-14T09:38:54;0.37;;;0.37;;
16516;SDS011;8371;52.272;9.746;2023-03-14T09:41:27;0.30;;;0.30;;
16516;SDS011;8371;52.272;9.746;2023-03-14T09:43:58;0.47;;;0.40;;
16516;SDS011;8371;52.272;9.746;2023-03-14T09:46:28;0.70;;;0.50;;
16516;SDS011;8371;52.272;9.746;2023-03-14T09:48:55;2.43;;;0.60;;
16516;SDS011;8371;52.272;9.746;2023-03-14T09:51:21;0.53;;;0.50;;
16516;SDS011;8371;52.272;9.746;2023-03-14T09:53:49;0.50;;;0.50;;
16516;SDS011;8371;52.272;9.746;2023-03-14T09:56:18;0.50;;;0.50;;
16516;SDS011;8371;52.272;9.746;2023-03-14T09:58:48;0.40;;;0.40;;
16516;SDS011;8371;52.272;9.746;2023-03-14T10:01:16;1.50;;;0.60;;
16516;SDS011;8371;52.272;9.746;2023-03-14T10:03:45;0.43;;;0.43;;
16516;SDS011;8371;52.272;9.746;2023-03-14T10:06:12;0.20;;;0.20;;
16516;SDS011;8371;52.272;9.746;2023-03-14T10:08:42;0.30;;;0.30;;
16516;SDS011;8371;52.272;9.746;2023-03-14T10:11:12;0.30;;;0.30;;
16516;SDS011;8371;52.272;9.746;2023-03-14T10:13:48;0.30;;;0.30;;
16516;SDS011;8371;52.272;9.746;2023-03-14T10:16:36;0.17;;;0.17;;
16516;SDS011;8371;52.272;9.746;2023-03-14T10:19:10;0.20;;;0.20;;
16516;SDS011;8371;52.272;9.746;2023-03-14T10:21:44;0.20;;;0.17;;
16516;SDS011;8371;52.272;9.746;2023-03-14T10:24:31;0.10;;;0.10;;
16516;SDS011;8371;52.272;9.746;2023-03-14T10:27:00;0.20;;;0.20;;
16516;SDS011;8371;52.272;9.746;2023-03-14T10:29:29;0.30;;;0.30;;
16516;SDS011;8371;52.272;9.746;2023-03-14T10:31:58;0.20;;;0.20;;
16516;SDS011;8371;52.272;9.746;2023-03-14T10:34:35;0.30;;;0.10;;
16516;SDS011;8371;52.272;9.746;2023-03-14T10:39:45;0.30;;;0.10;;
16516;SDS011;8371;52.272;9.746;2023-03-14T10:42:26;0.47;;;0.20;;
16516;SDS011;8371;52.272;9.746;2023-03-14T10:44:58;0.30;;;0.30;;
16516;SDS011;8371;52.272;9.746;2023-03-14T10:47:27;0.10;;;0.10;;
16516;SDS011;8371;52.272;9.746;2023-03-14T10:49:54;0.53;;;0.30;;
16516;SDS011;8371;52.272;9.746;2023-03-14T10:52:21;0.10;;;0.10;;
16516;SDS011;8371;52.272;9.746;2023-03-14T10:54:59;0.10;;;0.10;;
16516;SDS011;8371;52.272;9.746;2023-03-14T10:57:27;0.10;;;0.10;;
16516;SDS011;8371;52.272;9.746;2023-03-14T10:59:53;0.33;;;0.17;;
16516;SDS011;8371;52.272;9.746;2023-03-14T11:02:31;0.10;;;0.10;;
16516;SDS011;8371;52.272;9.746;2023-03-14T11:05:51;0.17;;;0.17;;
16516;SDS011;8371;52.272;9.746;2023-03-14T11:07:38;0.20;;;0.20;;
16516;SDS011;8371;52.272;9.746;2023-03-14T11:10:14;0.37;;;0.37;;
16516;SDS011;8371;52.272;9.746;2023-03-14T11:15:57;0.13;;;0.13;;
16516;SDS011;8371;52.272;9.746;2023-03-14T11:26:40;0.17;;;0.17;;
16516;SDS011;8371;52.272;9.746;2023-03-14T11:30:04;0.20;;;0.20;;
16516;SDS011;8371;52.272;9.746;2023-03-14T11:31:48;1.23;;;0.50;;
16516;SDS011;8371;52.272;9.746;2023-03-14T11:34:26;0.30;;;0.30;;
16516;SDS011;8371;52.272;9.746;2023-03-14T11:36:58;0.70;;;0.23;;
16516;SDS011;8371;52.272;9.746;2023-03-14T11:39:40;0.40;;;0.20;;
16516;SDS011;8371;52.272;9.746;2023-03-14T11:42:11;0.20;;;0.20;;
16516;SDS011;8371;52.272;9.746;2023-03-14T11:44:38;0.23;;;0.13;;
16516;SDS011;8371;52.272;9.746;2023-03-14T11:47:10;0.20;;;0.20;;
16516;SDS011;8371;52.272;9.746;2023-03-14T11:49:43;0.10;;;0.10;;
16516;SDS011;8371;52.272;9.746;2023-03-14T11:52:23;0.17;;;0.17;;
16516;SDS011;8371;52.272;9.746;2023-03-14T11:57:37;0.20;;;0.20;;
16516;SDS011;8371;52.272;9.746;2023-03-14T12:00:18;0.53;;;0.53;;
16516;SDS011;8371;52.272;9.746;2023-03-14T12:05:38;0.40;;;0.40;;
16516;SDS011;8371;52.272;9.746;2023-03-14T12:11:30;0.40;;;0.40;;
16516;SDS011;8371;52.272;9.746;2023-03-14T12:14:02;0.20;;;0.20;;
16516;SDS011;8371;52.272;9.746;2023-03-14T12:16:33;0.03;;;0.03;;
16516;SDS011;8371;52.272;9.746;2023-03-14T12:24:33;0.07;;;0.07;;
16516;SDS011;8371;52.272;9.746;2023-03-14T12:27:03;0.10;;;0.10;;
16516;SDS011;8371;52.272;9.746;2023-03-14T12:29:30;0.10;;;0.10;;
16516;SDS011;8371;52.272;9.746;2023-03-14T12:34:49;0.27;;;0.27;;
16516;SDS011;8371;52.272;9.746;2023-03-14T12:39:59;0.10;;;0.10;;
16516;SDS011;8371;52.272;9.746;2023-03-14T12:48:08;0.13;;;0.10;;
16516;SDS011;8371;52.272;9.746;2023-03-14T12:56:05;0.20;;;0.20;;
16516;SDS011;8371;52.272;9.746;2023-03-14T12:58:43;0.27;;;0.20;;
16516;SDS011;8371;52.272;9.746;2023-03-14T13:01:14;0.20;;;0.20;;
16516;SDS011;8371;52.272;9.746;2023-03-14T13:03:45;1.63;;;0.50;;
16516;SDS011;8371;52.272;9.746;2023-03-14T13:06:13;1.13;;;0.47;;
16516;SDS011;8371;52.272;9.746;2023-03-14T13:08:44;0.40;;;0.40;;
16516;SDS011;8371;52.272;9.746;2023-03-14T13:11:12;1.60;;;0.50;;
16516;SDS011;8371;52.272;9.746;2023-03-14T13:13:49;2.63;;;0.60;;
16516;SDS011;8371;52.272;9.746;2023-03-14T13:16:20;3.60;;;0.83;;
16516;SDS011;8371;52.272;9.746;2023-03-14T13:18:47;4.23;;;0.63;;
16516;SDS011;8371;52.272;9.746;2023-03-14T13:21:19;0.77;;;0.47;;
16516;SDS011;8371;52.272;9.746;2023-03-14T13:23:54;0.83;;;0.57;;
16516;SDS011;8371;52.272;9.746;2023-03-14T13:26:37;0.57;;;0.50;;
16516;SDS011;8371;52.272;9.746;2023-03-14T13:29:23;2.47;;;0.67;;
16516;SDS011;8371;52.272;9.746;2023-03-14T13:31:52;1.60;;;0.97;;
16516;SDS011;8371;52.272;9.746;2023-03-14T13:34:19;1.83;;;0.97;;
16516;SDS011;8371;52.272;9.746;2023-03-14T13:36:46;1.77;;;0.90;;
16516;SDS011;8371;52.272;9.746;2023-03-14T13:39:16;6.13;;;0.97;;
16516;SDS011;8371;52.272;9.746;2023-03-14T13:41:47;3.83;;;1.10;;
16516;SDS011;8371;52.272;9.746;2023-03-14T13:44:17;2.50;;;1.27;;
16516;SDS011;8371;52.272;9.746;2023-03-14T13:46:46;2.80;;;0.97;;
16516;SDS011;8371;52.272;9.746;2023-03-14T13:49:13;2.53;;;0.73;;
16516;SDS011;8371;52.272;9.746;2023-03-14T13:51:41;3.30;;;0.77;;
16516;SDS011;8371;52.272;9.746;2023-03-14T13:54:21;1.53;;;1.10;;
16516;SDS011;8371;52.272;9.746;2023-03-14T13:56:45;1.83;;;0.80;;
16516;SDS011;8371;52.272;9.746;2023-03-14T13:59:24;4.03;;;1.10;;
16516;SDS011;8371;52.272;9.746;2023-03-14T14:01:52;2.10;;;0.70;;
16516;SDS011;8371;52.272;9.746;2023-03-14T14:04:19;1.93;;;1.47;;
16516;SDS011;8371;52.272;9.746;2023-03-14T14:06:49;0.83;;;0.83;;
16516;SDS011;8371;52.272;9.746;2023-03-14T14:09:18;2.70;;;0.80;;
16516;SDS011;8371;52.272;9.746;2023-03-14T14:16:56;1.43;;;1.30;;
16516;SDS011;8371;52.272;9.746;2023-03-14T14:19:27;3.53;;;1.20;;
16516;SDS011;8371;52.272;9.746;2023-03-14T14:21:55;2.73;;;1.50;;
16516;SDS011;8371;52.272;9.746;2023-03-14T14:24:23;7.13;;;1.70;;
16516;SDS011;8371;52.272;9.746;2023-03-14T14:26:59;6.87;;;1.70;;
16516;SDS011;8371;52.272;9.746;2023-03-14T14:29:31;3.87;;;1.70;;
16516;SDS011;8371;52.272;9.746;2023-03-14T14:32:03;3.33;;;1.70;;
16516;SDS011;8371;52.272;9.746;2023-03-14T14:34:37;4.10;;;1.90;;
16516;SDS011;8371;52.272;9.746;2023-03-14T14:37:16;6.17;;;2.00;;
16516;SDS011;8371;52.272;9.746;2023-03-14T14:39:43;7.83;;;1.67;;
16516;SDS011;8371;52.272;9.746;2023-03-14T14:42:19;6.73;;;1.87;;
16516;SDS011;8371;52.272;9.746;2023-03-14T14:44:41;5.03;;;2.10;;
16516;SDS011;8371;52.272;9.746;2023-03-14T14:47:11;8.20;;;2.27;;
16516;SDS011;8371;52.272;9.746;2023-03-14T14:49:40;6.63;;;1.90;;
16516;SDS011;8371;52.272;9.746;2023-03-14T14:52:10;4.63;;;1.97;;
16516;SDS011;8371;52.272;9.746;2023-03-14T14:54:51;5.27;;;1.83;;
16516;SDS011;8371;52.272;9.746;2023-03-14T14:57:21;8.73;;;1.97;;
16516;SDS011;8371;52.272;9.746;2023-03-14T14:59:49;4.47;;;2.17;;
16516;SDS011;8371;52.272;9.746;2023-03-14T15:05:16;5.97;;;1.40;;
16516;SDS011;8371;52.272;9.746;2023-03-14T15:07:43;6.73;;;1.67;;
16516;SDS011;8371;52.272;9.746;2023-03-14T15:10:14;3.07;;;1.77;;
16516;SDS011;8371;52.272;9.746;2023-03-14T15:12:38;4.30;;;1.77;;
16516;SDS011;8371;52.272;9.746;2023-03-14T15:15:04;3.17;;;1.90;;
16516;SDS011;8371;52.272;9.746;2023-03-14T15:17:31;7.27;;;1.73;;
16516;SDS011;8371;52.272;9.746;2023-03-14T15:19:57;1.60;;;1.20;;
16516;SDS011;8371;52.272;9.746;2023-03-14T15:22:24;2.63;;;1.50;;
16516;SDS011;8371;52.272;9.746;2023-03-14T15:24:50;3.80;;;1.47;;
16516;SDS011;8371;52.272;9.746;2023-03-14T15:27:16;3.60;;;1.27;;
16516;SDS011;8371;52.272;9.746;2023-03-14T15:29:43;3.27;;;1.27;;
16516;SDS011;8371;52.272;9.746;2023-03-14T15:32:11;4.80;;;1.43;;
16516;SDS011;8371;52.272;9.746;2023-03-14T15:34:37;4.77;;;1.50;;
16516;SDS011;8371;52.272;9.746;2023-03-14T15:37:03;4.27;;;1.63;;
16516;SDS011;8371;52.272;9.746;2023-03-14T15:39:31;2.13;;;1.20;;
16516;SDS011;8371;52.272;9.746;2023-03-14T15:41:56;4.53;;;1.30;;
16516;SDS011;8371;52.272;9.746;2023-03-14T15:44:22;5.73;;;1.30;;
16516;SDS011;8371;52.272;9.746;2023-03-14T15:46:48;8.97;;;1.30;;
16516;SDS011;8371;52.272;9.746;2023-03-14T15:49:13;6.83;;;1.20;;
16516;SDS011;8371;52.272;9.746;2023-03-14T15:51:39;3.07;;;1.07;;
16516;SDS011;8371;52.272;9.746;2023-03-14T15:54:05;1.23;;;1.00;;
16516;SDS011;8371;52.272;9.746;2023-03-14T15:56:30;3.60;;;1.20;;
16516;SDS011;8371;52.272;9.746;2023-03-14T15:58:56;3.37;;;1.23;;
16516;SDS011;8371;52.272;9.746;2023-03-14T16:01:22;2.30;;;1.33;;
16516;SDS011;8371;52.272;9.746;2023-03-14T16:03:47;2.77;;;1.27;;
16516;SDS011;8371;52.272;9.746;2023-03-14T16:06:14;2.17;;;1.00;;
16516;SDS011;8371;52.272;9.746;2023-03-14T16:08:40;1.83;;;0.87;;
16516;SDS011;8371;52.272;9.746;2023-03-14T16:11:08;2.90;;;1.23;;
16516;SDS011;8371;52.272;9.746;2023-03-14T16:13:35;3.20;;;1.33;;